sensor_id;sensor_type;location;lat;lon;timestamp;pressure;altitude;pressure_sealevel;temperature;humidity
25664;BME280;13522;50.018;20.014;2023-02-20T00:00:07;99437.98;;;1.93;100.00
25664;BME280;13522;50.018;20.014;2023-02-20T00:03:25;99435.36;;;1.93;100.00
25664;BME280;13522;50.018;20.014;2023-02-20T00:06:37;99437.81;;;1.96;100.00
25664;BME280;13522;50.018;20.014;2023-02-20T00:09:49;99429.95;;;1.96;100.00
25664;BME280;13522;50.018;20.014;2023-02-20T00:13:02;99424.59;;;1.99;100.00
25664;BME280;13522;50.018;20.014;2023-02-20T00:16:14;99430.73;;;1.98;100.00
25664;BME280;13522;50.018;20.014;2023-02-20T00:19:26;99421.19;;;1.97;100.00
25664;BME280;13522;50.018;20.014;2023-02-20T00:22:40;99424.72;;;1.96;100.00
25664;BME280;13522;50.018;20.014;2023-02-20T00:25:52;99434.28;;;1.97;100.00
25664;BME280;13522;50.018;20.014;2023-02-20T00:29:04;99422.27;;;1.93;100.00
25664;BME280;13522;50.018;20.014;2023-02-20T00:32:16;99428.36;;;1.94;100.00
25664;BME280;13522;50.018;20.014;2023-02-20T00:35:29;99425.48;;;1.98;100.00
25664;BME280;13522;50.018;20.014;2023-02-20T00:38:44;99428.89;;;2.00;100.00
25664;BME280;13522;50.018;20.014;2023-02-20T00:41:56;99434.90;;;2.02;100.00
25664;BME280;13522;50.018;20.014;2023-02-20T00:45:09;99428.84;;;2.02;100.00
25664;BME280;13522;50.018;20.014;2023-02-20T00:48:21;99429.61;;;2.04;100.00
25664;BME280;13522;50.018;20.014;2023-02-20T00:51:35;99427.05;;;2.02;100.00
25664;BME280;13522;50.018;20.014;2023-02-20T00:54:47;99415.50;;;2.06;100.00
25664;BME280;13522;50.018;20.014;2023-02-20T00:57:59;99416.44;;;2.05;100.00
25664;BME280;13522;50.018;20.014;2023-02-20T01:01:11;99411.33;;;2.02;100.00
25664;BME280;13522;50.018;20.014;2023-02-20T01:04:24;99405.02;;;2.06;100.00
25664;BME280;13522;50.018;20.014;2023-02-20T01:07:36;99408.58;;;2.05;100.00
25664;BME280;13522;50.018;20.014;2023-02-20T01:10:48;99398.02;;;2.07;100.00
25664;BME280;13522;50.018;20.014;2023-02-20T01:14:00;99403.17;;;2.08;100.00
25664;BME280;13522;50.018;20.014;2023-02-20T01:17:14;99397.02;;;2.09;100.00
25664;BME280;13522;50.018;20.014;2023-02-20T01:20:26;99399.64;;;2.09;100.00
25664;BME280;13522;50.018;20.014;2023-02-20T01:23:38;99403.95;;;2.10;100.00
25664;BME280;13522;50.018;20.014;2023-02-20T01:26:50;99411.75;;;2.12;100.00
25664;BME280;13522;50.018;20.014;2023-02-20T01:30:03;99422.92;;;2.15;100.00
25664;BME280;13522;50.018;20.014;2023-02-20T01:33:16;99414.08;;;2.18;100.00
25664;BME280;13522;50.018;20.014;2023-02-20T01:36:29;99409.66;;;2.18;100.00
25664;BME280;13522;50.018;20.014;2023-02-20T01:39:42;99409.61;;;2.20;100.00
25664;BME280;13522;50.018;20.014;2023-02-20T01:42:57;99409.66;;;2.18;100.00
25664;BME280;13522;50.018;20.014;2023-02-20T01:50:10;99403.34;;;2.22;100.00
25664;BME280;13522;50.018;20.014;2023-02-20T01:53:26;99405.06;;;2.23;100.00
25664;BME280;13522;50.018;20.014;2023-02-20T01:56:39;99399.05;;;2.21;100.00
25664;BME280;13522;50.018;20.014;2023-02-20T01:59:52;99401.58;;;2.23;100.00
25664;BME280;13522;50.018;20.014;2023-02-20T02:03:10;99392.86;;;2.22;100.00
25664;BME280;13522;50.018;20.014;2023-02-20T02:06:25;99388.39;;;2.24;100.00
25664;BME280;13522;50.018;20.014;2023-02-20T02:09:41;99384.95;;;2.24;100.00
25664;BME280;13522;50.018;20.014;2023-02-20T02:12:54;99377.91;;;2.24;100.00
25664;BME280;13522;50.018;20.014;2023-02-20T02:16:15;99375.30;;;2.24;100.00
25664;BME280;13522;50.018;20.014;2023-02-20T02:24:04;99359.57;;;2.24;100.00
25664;BME280;13522;50.018;20.014;2023-02-20T02:28:09;99361.20;;;2.27;100.00
25664;BME280;13522;50.018;20.014;2023-02-20T02:32:21;99375.16;;;2.27;100.00
25664;BME280;13522;50.018;20.014;2023-02-20T02:39:55;99379.55;;;2.27;100.00
25664;BME280;13522;50.018;20.014;2023-02-20T02:43:14;99370.05;;;2.24;100.00
25664;BME280;13522;50.018;20.014;2023-02-20T02:46:30;99372.45;;;2.29;100.00
25664;BME280;13522;50.018;20.014;2023-02-20T02:49:47;99350.63;;;2.28;100.00
25664;BME280;13522;50.018;20.014;2023-02-20T02:53:03;99341.78;;;2.31;100.00
25664;BME280;13522;50.018;20.014;2023-02-20T02:56:16;99363.59;;;2.31;100.00
25664;BME280;13522;50.018;20.014;2023-02-20T02:59:33;99357.64;;;2.28;100.00
25664;BME280;13522;50.018;20.014;2023-02-20T03:02:51;99358.66;;;2.25;99.66
25664;BME280;13522;50.018;20.014;2023-02-20T03:06:10;99368.89;;;2.30;99.25
25664;BME280;13522;50.018;20.014;2023-02-20T03:09:29;99351.58;;;2.27;99.07
25664;BME280;13522;50.018;20.014;2023-02-20T03:12:43;99346.33;;;2.27;98.92
25664;BME280;13522;50.018;20.014;2023-02-20T03:15:58;99339.38;;;2.26;99.44
25664;BME280;13522;50.018;20.014;2023-02-20T03:19:14;99310.73;;;2.23;99.67
25664;BME280;13522;50.018;20.014;2023-02-20T03:22:33;99301.23;;;2.21;99.65
25664;BME280;13522;50.018;20.014;2023-02-20T03:25:53;99295.23;;;2.19;99.38
25664;BME280;13522;50.018;20.014;2023-02-20T03:29:10;99297.00;;;2.18;99.59
25664;BME280;13522;50.018;20.014;2023-02-20T03:32:29;99300.56;;;2.17;99.73
25664;BME280;13522;50.018;20.014;2023-02-20T03:35:58;99304.94;;;2.17;99.74
25664;BME280;13522;50.018;20.014;2023-02-20T03:39:30;99299.70;;;2.17;99.88
25664;BME280;13522;50.018;20.014;2023-02-20T03:43:02;99297.17;;;2.15;99.73
25664;BME280;13522;50.018;20.014;2023-02-20T03:46:36;99305.16;;;2.12;99.57
25664;BME280;13522;50.018;20.014;2023-02-20T03:49:51;99305.25;;;2.11;99.97
25664;BME280;13522;50.018;20.014;2023-02-20T03:53:06;99301.09;;;2.07;100.00
25664;BME280;13522;50.018;20.014;2023-02-20T03:56:21;99304.70;;;2.04;99.80
25664;BME280;13522;50.018;20.014;2023-02-20T03:59:39;99296.84;;;2.04;99.97
25664;BME280;13522;50.018;20.014;2023-02-20T04:02:56;99302.25;;;2.01;100.00
25664;BME280;13522;50.018;20.014;2023-02-20T04:06:14;99296.24;;;1.99;99.94
25664;BME280;13522;50.018;20.014;2023-02-20T04:09:30;99305.00;;;1.98;99.78
25664;BME280;13522;50.018;20.014;2023-02-20T04:12:46;99307.41;;;2.03;98.92
25664;BME280;13522;50.018;20.014;2023-02-20T04:16:01;99300.48;;;2.02;98.90
25664;BME280;13522;50.018;20.014;2023-02-20T04:19:15;99305.78;;;2.00;98.89
25664;BME280;13522;50.018;20.014;2023-02-20T04:22:31;99310.25;;;1.98;99.14
25664;BME280;13522;50.018;20.014;2023-02-20T04:25:48;99299.17;;;1.93;99.19
25664;BME280;13522;50.018;20.014;2023-02-20T04:29:03;99295.78;;;1.91;99.15
25664;BME280;13522;50.018;20.014;2023-02-20T04:32:16;99297.70;;;1.88;99.51
25664;BME280;13522;50.018;20.014;2023-02-20T04:35:29;99300.16;;;1.91;98.44
25664;BME280;13522;50.018;20.014;2023-02-20T04:38:41;99296.85;;;1.87;98.67
25664;BME280;13522;50.018;20.014;2023-02-20T04:41:55;99286.38;;;1.87;98.15
25664;BME280;13522;50.018;20.014;2023-02-20T04:45:08;99268.98;;;1.86;97.81
25664;BME280;13522;50.018;20.014;2023-02-20T04:48:22;99262.98;;;1.84;97.80
25664;BME280;13522;50.018;20.014;2023-02-20T04:51:35;99253.58;;;1.80;97.80
25664;BME280;13522;50.018;20.014;2023-02-20T04:54:48;99260.49;;;1.81;97.62
25664;BME280;13522;50.018;20.014;2023-02-20T04:58:00;99261.48;;;1.78;97.65
25664;BME280;13522;50.018;20.014;2023-02-20T05:01:14;99275.52;;;1.78;97.48
25664;BME280;13522;50.018;20.014;2023-02-20T05:04:27;99279.90;;;1.77;97.55
25664;BME280;13522;50.018;20.014;2023-02-20T05:07:39;99268.57;;;1.76;97.50
25664;BME280;13522;50.018;20.014;2023-02-20T05:10:51;99267.66;;;1.78;97.02
25664;BME280;13522;50.018;20.014;2023-02-20T05:14:03;99273.76;;;1.78;96.60
25664;BME280;13522;50.018;20.014;2023-02-20T05:17:15;99259.42;;;1.85;95.78
25664;BME280;13522;50.018;20.014;2023-02-20T05:20:27;99258.52;;;1.86;95.51
25664;BME280;13522;50.018;20.014;2023-02-20T05:23:54;99254.18;;;1.85;95.41
25664;BME280;13522;50.018;20.014;2023-02-20T05:27:07;99250.70;;;1.85;95.31
25664;BME280;13522;50.018;20.014;2023-02-20T05:30:20;99233.31;;;1.84;94.93
25664;BME280;13522;50.018;20.014;2023-02-20T05:33:32;99236.02;;;1.82;95.03
25664;BME280;13522;50.018;20.014;2023-02-20T05:36:44;99243.11;;;1.80;94.91
25664;BME280;13522;50.018;20.014;2023-02-20T05:39:56;99246.80;;;1.76;94.84
25664;BME280;13522;50.018;20.014;2023-02-20T05:43:08;99251.18;;;1.75;94.96
25664;BME280;13522;50.018;20.014;2023-02-20T05:46:20;99264.36;;;1.74;94.88
25664;BME280;13522;50.018;20.014;2023-02-20T05:49:33;99256.72;;;1.69;94.82
25664;BME280;13522;50.018;20.014;2023-02-20T05:52:46;99258.34;;;1.72;94.92
25664;BME280;13522;50.018;20.014;2023-02-20T05:55:58;99259.13;;;1.74;94.88
25664;BME280;13522;50.018;20.014;2023-02-20T05:59:10;99256.42;;;1.75;94.31
25664;BME280;13522;50.018;20.014;2023-02-20T06:02:23;99259.72;;;1.79;94.36
25664;BME280;13522;50.018;20.014;2023-02-20T06:05:36;99255.95;;;1.85;94.15
25664;BME280;13522;50.018;20.014;2023-02-20T06:08:48;99263.44;;;1.92;93.52
25664;BME280;13522;50.018;20.014;2023-02-20T06:12:00;99264.81;;;1.99;93.51
25664;BME280;13522;50.018;20.014;2023-02-20T06:15:13;99255.56;;;2.09;92.02
25664;BME280;13522;50.018;20.014;2023-02-20T06:18:25;99258.55;;;2.19;92.00
25664;BME280;13522;50.018;20.014;2023-02-20T06:21:37;99263.39;;;2.26;90.56
25664;BME280;13522;50.018;20.014;2023-02-20T06:24:51;99254.30;;;2.33;90.36
25664;BME280;13522;50.018;20.014;2023-02-20T06:28:03;99251.41;;;2.38;90.18
25664;BME280;13522;50.018;20.014;2023-02-20T06:31:20;99251.27;;;2.41;90.40
25664;BME280;13522;50.018;20.014;2023-02-20T06:34:34;99260.76;;;2.43;89.90
25664;BME280;13522;50.018;20.014;2023-02-20T06:37:46;99264.91;;;2.47;89.89
25664;BME280;13522;50.018;20.014;2023-02-20T06:40:58;99267.45;;;2.49;90.01
25664;BME280;13522;50.018;20.014;2023-02-20T06:44:10;99259.41;;;2.52;89.93
25664;BME280;13522;50.018;20.014;2023-02-20T06:47:22;99256.64;;;2.55;90.08
25664;BME280;13522;50.018;20.014;2023-02-20T06:50:34;99260.79;;;2.59;89.06
25664;BME280;13522;50.018;20.014;2023-02-20T06:53:47;99268.39;;;2.63;88.87
25664;BME280;13522;50.018;20.014;2023-02-20T06:56:59;99258.42;;;2.70;88.41
25664;BME280;13522;50.018;20.014;2023-02-20T07:00:14;99249.47;;;2.74;88.11
25664;BME280;13522;50.018;20.014;2023-02-20T07:03:27;99241.45;;;2.77;87.85
25664;BME280;13522;50.018;20.014;2023-02-20T07:06:39;99246.42;;;2.82;87.66
25664;BME280;13522;50.018;20.014;2023-02-20T07:09:52;99239.32;;;2.84;87.71
25664;BME280;13522;50.018;20.014;2023-02-20T07:13:06;99227.73;;;2.88;87.91
25664;BME280;13522;50.018;20.014;2023-02-20T07:16:18;99221.58;;;2.89;88.06
25664;BME280;13522;50.018;20.014;2023-02-20T07:19:30;99209.98;;;2.93;87.89
25664;BME280;13522;50.018;20.014;2023-02-20T07:26:22;99200.06;;;2.98;87.66
25664;BME280;13522;50.018;20.014;2023-02-20T07:29:35;99191.76;;;3.05;87.24
25664;BME280;13522;50.018;20.014;2023-02-20T07:32:48;99195.08;;;3.09;86.39
25664;BME280;13522;50.018;20.014;2023-02-20T07:36:00;99196.32;;;3.17;85.77
25664;BME280;13522;50.018;20.014;2023-02-20T07:39:41;99197.91;;;3.35;85.36
25664;BME280;13522;50.018;20.014;2023-02-20T07:43:22;99202.00;;;3.55;83.90
25664;BME280;13522;50.018;20.014;2023-02-20T07:46:43;99196.23;;;3.64;83.11
25664;BME280;13522;50.018;20.014;2023-02-20T07:50:24;99184.75;;;3.95;81.36
25664;BME280;13522;50.018;20.014;2023-02-20T07:53:36;99182.14;;;4.09;80.95
25664;BME280;13522;50.018;20.014;2023-02-20T07:56:48;99174.16;;;4.10;80.16
25664;BME280;13522;50.018;20.014;2023-02-20T08:00:00;99161.22;;;4.07;80.63
25664;BME280;13522;50.018;20.014;2023-02-20T08:03:15;99156.51;;;4.12;80.81
25664;BME280;13522;50.018;20.014;2023-02-20T08:06:27;99143.95;;;4.17;80.82
25664;BME280;13522;50.018;20.014;2023-02-20T08:09:39;99136.06;;;4.31;80.83
25664;BME280;13522;50.018;20.014;2023-02-20T08:12:52;99146.56;;;4.46;80.15
25664;BME280;13522;50.018;20.014;2023-02-20T08:16:05;99156.88;;;4.49;80.54
25664;BME280;13522;50.018;20.014;2023-02-20T08:19:17;99154.89;;;4.52;80.91
25664;BME280;13522;50.018;20.014;2023-02-20T08:22:30;99154.89;;;4.52;81.57
25664;BME280;13522;50.018;20.014;2023-02-20T08:25:44;99140.45;;;4.45;80.81
25664;BME280;13522;50.018;20.014;2023-02-20T08:28:56;99142.49;;;4.54;82.39
25664;BME280;13522;50.018;20.014;2023-02-20T08:32:09;99147.65;;;4.56;82.96
25664;BME280;13522;50.018;20.014;2023-02-20T08:35:22;99144.20;;;4.55;82.28
25664;BME280;13522;50.018;20.014;2023-02-20T08:38:36;99124.45;;;4.62;82.20
25664;BME280;13522;50.018;20.014;2023-02-20T08:41:48;99121.14;;;4.73;82.27
25664;BME280;13522;50.018;20.014;2023-02-20T08:45:00;99110.66;;;4.85;82.41
25664;BME280;13522;50.018;20.014;2023-02-20T08:48:14;99096.81;;;4.96;82.51
25664;BME280;13522;50.018;20.014;2023-02-20T08:51:26;99084.90;;;4.90;83.22
25664;BME280;13522;50.018;20.014;2023-02-20T08:54:38;99098.00;;;5.04;83.92
25664;BME280;13522;50.018;20.014;2023-02-20T08:57:53;99094.28;;;5.34;83.33
25664;BME280;13522;50.018;20.014;2023-02-20T09:01:05;99087.99;;;5.61;83.99
25664;BME280;13522;50.018;20.014;2023-02-20T09:04:17;99084.09;;;5.67;83.56
25664;BME280;13522;50.018;20.014;2023-02-20T09:07:29;99072.31;;;5.72;84.59
25664;BME280;13522;50.018;20.014;2023-02-20T09:10:42;99075.07;;;5.83;84.47
25664;BME280;13522;50.018;20.014;2023-02-20T09:13:54;99068.09;;;5.95;84.65
25664;BME280;13522;50.018;20.014;2023-02-20T09:17:06;99064.29;;;6.11;84.32
25664;BME280;13522;50.018;20.014;2023-02-20T09:20:20;99056.02;;;6.29;83.10
25664;BME280;13522;50.018;20.014;2023-02-20T09:23:32;99043.02;;;6.02;83.46
25664;BME280;13522;50.018;20.014;2023-02-20T09:26:44;99050.14;;;6.12;84.34
25664;BME280;13522;50.018;20.014;2023-02-20T09:29:56;99032.66;;;6.11;83.54
25664;BME280;13522;50.018;20.014;2023-02-20T09:33:08;99029.64;;;6.29;82.43
25664;BME280;13522;50.018;20.014;2023-02-20T09:36:22;99015.98;;;6.11;82.13
25664;BME280;13522;50.018;20.014;2023-02-20T09:39:34;99014.95;;;6.01;82.94
25664;BME280;13522;50.018;20.014;2023-02-20T09:42:55;99013.16;;;6.01;83.06
25664;BME280;13522;50.018;20.014;2023-02-20T09:46:14;99002.43;;;5.92;83.70
25664;BME280;13522;50.018;20.014;2023-02-20T09:49:30;98989.75;;;5.97;84.19
25664;BME280;13522;50.018;20.014;2023-02-20T09:52:49;98982.58;;;5.99;84.50
25664;BME280;13522;50.018;20.014;2023-02-20T09:56:05;98982.02;;;6.06;84.61
25664;BME280;13522;50.018;20.014;2023-02-20T09:59:21;98994.04;;;6.10;85.32
25664;BME280;13522;50.018;20.014;2023-02-20T10:02:38;98991.49;;;6.22;85.19
25664;BME280;13522;50.018;20.014;2023-02-20T10:05:55;98983.42;;;6.36;85.84
25664;BME280;13522;50.018;20.014;2023-02-20T10:09:12;98980.43;;;6.40;86.27
25664;BME280;13522;50.018;20.014;2023-02-20T10:12:27;98973.16;;;6.44;86.88
25664;BME280;13522;50.018;20.014;2023-02-20T10:15:45;98963.05;;;6.38;86.36
25664;BME280;13522;50.018;20.014;2023-02-20T10:19:08;98961.64;;;6.45;86.16
25664;BME280;13522;50.018;20.014;2023-02-20T10:22:27;98950.64;;;6.51;85.59
25664;BME280;13522;50.018;20.014;2023-02-20T10:25:42;98939.48;;;6.47;86.03
25664;BME280;13522;50.018;20.014;2023-02-20T10:29:01;98930.47;;;6.50;85.84
25664;BME280;13522;50.018;20.014;2023-02-20T10:32:20;98935.53;;;6.53;86.37
25664;BME280;13522;50.018;20.014;2023-02-20T10:35:38;98932.17;;;6.51;86.40
25664;BME280;13522;50.018;20.014;2023-02-20T10:38:57;98919.58;;;6.54;86.56
25664;BME280;13522;50.018;20.014;2023-02-20T10:42:13;98907.72;;;6.60;86.91
25664;BME280;13522;50.018;20.014;2023-02-20T10:45:32;98894.58;;;6.71;86.77
25664;BME280;13522;50.018;20.014;2023-02-20T10:48:48;98897.36;;;6.80;86.38
25664;BME280;13522;50.018;20.014;2023-02-20T10:52:05;98889.58;;;6.90;86.68
25664;BME280;13522;50.018;20.014;2023-02-20T10:55:26;98878.55;;;6.96;85.55
25664;BME280;13522;50.018;20.014;2023-02-20T10:58:43;98869.44;;;7.00;85.54
25664;BME280;13522;50.018;20.014;2023-02-20T11:01:59;98851.67;;;7.02;85.52
25664;BME280;13522;50.018;20.014;2023-02-20T11:05:17;98847.36;;;7.12;86.00
25664;BME280;13522;50.018;20.014;2023-02-20T11:08:30;98846.63;;;7.21;85.38
25664;BME280;13522;50.018;20.014;2023-02-20T11:11:44;98814.34;;;7.18;83.97
25664;BME280;13522;50.018;20.014;2023-02-20T11:15:00;98812.04;;;7.35;83.73
25664;BME280;13522;50.018;20.014;2023-02-20T11:18:22;98816.25;;;7.38;83.76
25664;BME280;13522;50.018;20.014;2023-02-20T11:21:38;98811.09;;;7.36;83.34
25664;BME280;13522;50.018;20.014;2023-02-20T11:24:51;98797.52;;;7.30;84.64
25664;BME280;13522;50.018;20.014;2023-02-20T11:28:15;98792.11;;;7.31;85.30
25664;BME280;13522;50.018;20.014;2023-02-20T11:31:28;98786.50;;;7.25;85.82
25664;BME280;13522;50.018;20.014;2023-02-20T11:34:40;98779.88;;;7.19;86.85
25664;BME280;13522;50.018;20.014;2023-02-20T11:41:37;98771.83;;;7.32;87.12
25664;BME280;13522;50.018;20.014;2023-02-20T11:45:04;98767.52;;;7.31;87.35
25664;BME280;13522;50.018;20.014;2023-02-20T11:48:21;98758.84;;;7.40;87.09
25664;BME280;13522;50.018;20.014;2023-02-20T11:51:37;98750.02;;;7.61;86.86
25664;BME280;13522;50.018;20.014;2023-02-20T11:55:08;98754.09;;;7.65;86.33
25664;BME280;13522;50.018;20.014;2023-02-20T11:58:26;98726.71;;;7.66;86.68
25664;BME280;13522;50.018;20.014;2023-02-20T12:01:39;98714.44;;;7.65;87.02
25664;BME280;13522;50.018;20.014;2023-02-20T12:05:08;98712.30;;;7.59;87.80
25664;BME280;13522;50.018;20.014;2023-02-20T12:08:35;98705.64;;;7.44;88.24
25664;BME280;13522;50.018;20.014;2023-02-20T12:11:58;98686.30;;;7.44;89.13
25664;BME280;13522;50.018;20.014;2023-02-20T12:15:16;98688.59;;;7.37;89.61
25664;BME280;13522;50.018;20.014;2023-02-20T12:18:40;98656.26;;;7.45;89.28
25664;BME280;13522;50.018;20.014;2023-02-20T12:22:03;98633.48;;;7.64;88.52
25664;BME280;13522;50.018;20.014;2023-02-20T12:25:26;98632.70;;;7.73;88.60
25664;BME280;13522;50.018;20.014;2023-02-20T12:28:44;98624.72;;;7.64;88.75
25664;BME280;13522;50.018;20.014;2023-02-20T12:32:19;98634.06;;;7.68;89.08
25664;BME280;13522;50.018;20.014;2023-02-20T12:35:36;98630.84;;;7.64;89.27
25664;BME280;13522;50.018;20.014;2023-02-20T12:38:56;98631.73;;;7.54;89.27
25664;BME280;13522;50.018;20.014;2023-02-20T12:42:19;98631.39;;;7.47;89.44
25664;BME280;13522;50.018;20.014;2023-02-20T12:45:37;98627.09;;;7.46;89.55
25664;BME280;13522;50.018;20.014;2023-02-20T12:49:01;98614.96;;;7.44;89.76
25664;BME280;13522;50.018;20.014;2023-02-20T12:56:11;98605.68;;;7.49;89.57
25664;BME280;13522;50.018;20.014;2023-02-20T12:59:30;98592.23;;;7.52;89.64
25664;BME280;13522;50.018;20.014;2023-02-20T13:02:47;98568.13;;;7.66;89.09
25664;BME280;13522;50.018;20.014;2023-02-20T13:06:03;98570.88;;;7.65;88.52
25664;BME280;13522;50.018;20.014;2023-02-20T13:09:21;98532.97;;;7.75;88.96
25664;BME280;13522;50.018;20.014;2023-02-20T13:12:36;98553.95;;;7.98;88.07
25664;BME280;13522;50.018;20.014;2023-02-20T13:15:55;98531.08;;;7.87;87.95
25664;BME280;13522;50.018;20.014;2023-02-20T13:19:13;98540.56;;;7.89;87.61
25664;BME280;13522;50.018;20.014;2023-02-20T13:22:23;98555.72;;;7.87;87.61
25664;BME280;13522;50.018;20.014;2023-02-20T13:25:44;98543.59;;;7.85;87.99
25664;BME280;13522;50.018;20.014;2023-02-20T13:28:58;98546.62;;;7.80;87.54
25664;BME280;13522;50.018;20.014;2023-02-20T13:32:26;98539.58;;;7.90;87.76
25664;BME280;13522;50.018;20.014;2023-02-20T13:35:48;98512.71;;;7.85;87.78
25664;BME280;13522;50.018;20.014;2023-02-20T13:43:23;98502.91;;;8.07;87.26
25664;BME280;13522;50.018;20.014;2023-02-20T13:46:55;98505.69;;;8.05;87.18
25664;BME280;13522;50.018;20.014;2023-02-20T13:53:41;98495.59;;;8.20;85.86
25664;BME280;13522;50.018;20.014;2023-02-20T13:56:57;98481.56;;;8.29;85.90
25664;BME280;13522;50.018;20.014;2023-02-20T14:00:22;98442.33;;;8.34;85.04
25664;BME280;13522;50.018;20.014;2023-02-20T14:03:36;98417.94;;;8.40;85.08
25664;BME280;13522;50.018;20.014;2023-02-20T14:06:53;98394.41;;;8.46;84.33
25664;BME280;13522;50.018;20.014;2023-02-20T14:10:13;98401.65;;;8.54;84.65
25664;BME280;13522;50.018;20.014;2023-02-20T14:13:28;98401.50;;;8.46;84.86
25664;BME280;13522;50.018;20.014;2023-02-20T14:16:42;98382.58;;;8.41;84.49
25664;BME280;13522;50.018;20.014;2023-02-20T14:19:57;98368.80;;;8.37;84.66
25664;BME280;13522;50.018;20.014;2023-02-20T14:23:25;98350.42;;;8.36;84.65
25664;BME280;13522;50.018;20.014;2023-02-20T14:26:39;98323.97;;;8.36;84.41
25664;BME280;13522;50.018;20.014;2023-02-20T14:30:04;98330.06;;;8.36;84.55
25664;BME280;13522;50.018;20.014;2023-02-20T14:33:27;98326.47;;;8.37;84.29
25664;BME280;13522;50.018;20.014;2023-02-20T14:36:59;98323.27;;;8.34;85.24
25664;BME280;13522;50.018;20.014;2023-02-20T14:40:21;98316.97;;;8.16;85.54
25664;BME280;13522;50.018;20.014;2023-02-20T14:43:33;98324.76;;;8.08;86.14
25664;BME280;13522;50.018;20.014;2023-02-20T14:46:46;98322.81;;;8.00;86.09
25664;BME280;13522;50.018;20.014;2023-02-20T14:50:18;98312.64;;;7.96;86.63
25664;BME280;13522;50.018;20.014;2023-02-20T14:53:31;98295.23;;;7.93;86.54
25664;BME280;13522;50.018;20.014;2023-02-20T14:56:44;98280.47;;;7.90;86.90
25664;BME280;13522;50.018;20.014;2023-02-20T15:00:23;98275.08;;;7.92;86.45
25664;BME280;13522;50.018;20.014;2023-02-20T15:03:43;98263.66;;;7.92;86.79
25664;BME280;13522;50.018;20.014;2023-02-20T15:07:10;98257.52;;;7.91;86.89
25664;BME280;13522;50.018;20.014;2023-02-20T15:10:34;98259.62;;;7.87;87.19
25664;BME280;13522;50.018;20.014;2023-02-20T15:17:08;98243.75;;;7.87;87.50
25664;BME280;13522;50.018;20.014;2023-02-20T15:20:38;98240.97;;;7.89;87.34
25664;BME280;13522;50.018;20.014;2023-02-20T15:23:53;98232.89;;;7.90;87.14
25664;BME280;13522;50.018;20.014;2023-02-20T15:27:16;98240.70;;;7.92;87.01
25664;BME280;13522;50.018;20.014;2023-02-20T15:30:33;98249.33;;;7.94;87.18
25664;BME280;13522;50.018;20.014;2023-02-20T15:33:52;98252.78;;;7.95;87.33
25664;BME280;13522;50.018;20.014;2023-02-20T15:40:17;98247.64;;;7.93;87.60
25664;BME280;13522;50.018;20.014;2023-02-20T15:43:32;98253.08;;;7.92;87.56
25664;BME280;13522;50.018;20.014;2023-02-20T15:46:48;98250.58;;;7.90;87.65
25664;BME280;13522;50.018;20.014;2023-02-20T15:50:00;98244.45;;;7.89;88.01
25664;BME280;13522;50.018;20.014;2023-02-20T15:53:16;98246.80;;;7.93;87.78
25664;BME280;13522;50.018;20.014;2023-02-20T15:56:32;98228.30;;;7.93;87.94
25664;BME280;13522;50.018;20.014;2023-02-20T15:59:46;98218.97;;;7.88;88.44
25664;BME280;13522;50.018;20.014;2023-02-20T16:03:00;98220.25;;;7.94;88.27
25664;BME280;13522;50.018;20.014;2023-02-20T16:06:12;98206.58;;;7.99;87.93
25664;BME280;13522;50.018;20.014;2023-02-20T16:09:25;98205.06;;;8.06;87.58
25664;BME280;13522;50.018;20.014;2023-02-20T16:18:41;98230.09;;;8.21;86.67
25664;BME280;13522;50.018;20.014;2023-02-20T16:21:56;98244.17;;;8.31;85.98
25664;BME280;13522;50.018;20.014;2023-02-20T16:28:08;98246.64;;;8.42;85.17
25664;BME280;13522;50.018;20.014;2023-02-20T16:31:20;98252.36;;;8.47;84.77
25664;BME280;13522;50.018;20.014;2023-02-20T16:34:34;98247.58;;;8.60;84.69
25664;BME280;13522;50.018;20.014;2023-02-20T16:37:48;98260.23;;;8.66;84.11
25664;BME280;13522;50.018;20.014;2023-02-20T16:41:00;98267.03;;;8.78;83.08
25664;BME280;13522;50.018;20.014;2023-02-20T16:44:14;98264.50;;;8.86;83.13
25664;BME280;13522;50.018;20.014;2023-02-20T16:47:31;98261.38;;;9.00;82.34
25664;BME280;13522;50.018;20.014;2023-02-20T16:50:43;98253.92;;;9.13;81.97
25664;BME280;13522;50.018;20.014;2023-02-20T16:53:58;98267.16;;;9.23;81.58
25664;BME280;13522;50.018;20.014;2023-02-20T16:57:12;98273.83;;;9.27;81.16
25664;BME280;13522;50.018;20.014;2023-02-20T17:00:28;98270.03;;;9.29;81.13
25664;BME280;13522;50.018;20.014;2023-02-20T17:03:43;98277.80;;;9.40;80.31
25664;BME280;13522;50.018;20.014;2023-02-20T17:06:55;98264.48;;;9.50;80.67
25664;BME280;13522;50.018;20.014;2023-02-20T17:10:08;98252.00;;;9.60;80.43
25664;BME280;13522;50.018;20.014;2023-02-20T17:13:20;98250.25;;;9.69;80.02
25664;BME280;13522;50.018;20.014;2023-02-20T17:16:33;98239.52;;;9.70;80.64
25664;BME280;13522;50.018;20.014;2023-02-20T17:19:46;98237.76;;;9.79;80.00
25664;BME280;13522;50.018;20.014;2023-02-20T17:23:00;98228.84;;;9.80;81.03
25664;BME280;13522;50.018;20.014;2023-02-20T17:26:13;98242.78;;;9.82;80.82
25664;BME280;13522;50.018;20.014;2023-02-20T17:29:25;98249.29;;;9.87;79.97
25664;BME280;13522;50.018;20.014;2023-02-20T17:32:37;98219.95;;;9.89;80.65
25664;BME280;13522;50.018;20.014;2023-02-20T17:35:49;98226.10;;;9.89;80.65
25664;BME280;13522;50.018;20.014;2023-02-20T17:39:01;98220.27;;;10.03;79.73
25664;BME280;13522;50.018;20.014;2023-02-20T17:42:14;98226.93;;;10.07;80.06
25664;BME280;13522;50.018;20.014;2023-02-20T17:45:26;98226.93;;;10.07;79.19
25664;BME280;13522;50.018;20.014;2023-02-20T17:48:41;98228.68;;;10.16;79.69
25664;BME280;13522;50.018;20.014;2023-02-20T17:51:55;98240.66;;;10.20;78.98
25664;BME280;13522;50.018;20.014;2023-02-20T17:55:11;98228.23;;;10.21;79.55
25664;BME280;13522;50.018;20.014;2023-02-20T17:58:27;98239.23;;;10.26;78.19
25664;BME280;13522;50.018;20.014;2023-02-20T18:01:39;98244.67;;;10.24;78.70